Time;durP1;ratioP1;P1;durP2;ratioP2;P2;SDS_P1;SDS_P2;PMS_P1;PMS_P2;Temp;Humidity;BMP_temperature;BMP_pressure;BME280_temperature;BME280_humidity;BME280_pressure;Samples;Min_cycle;Max_cycle;Signal;HPM_P1;HPM_P2
2022/06/09 00:00:32;;;;;;;;;5.50;5.50;;;;;14.85;78.50;99096.47;5094155;28;8838;-64
2022/06/09 00:02:59;;;;;;;;;7.00;7.00;;;;;14.86;78.97;99106.19;5094956;28;8949;-64
2022/06/09 00:05:28;;;;;;;;;6.00;5.00;;;;;14.87;79.14;99097.16;5094311;28;8838;-64
2022/06/09 00:07:56;;;;;;;;;5.00;4.00;;;;;14.88;79.16;99106.88;5094249;28;8849;-64
2022/06/09 00:10:24;;;;;;;;;6.50;5.00;;;;;14.88;79.42;99112.22;5094740;28;8969;-64
2022/06/09 00:12:51;;;;;;;;;3.75;3.75;;;;;14.89;79.32;99108.53;5094795;28;8984;-64
2022/06/09 00:15:19;;;;;;;;;7.00;7.00;;;;;14.88;78.64;99102.31;5094863;28;8850;-64
2022/06/09 00:17:47;;;;;;;;;6.75;6.75;;;;;14.87;79.02;99107.88;5094587;28;8850;-64
2022/06/09 00:20:16;;;;;;;;;6.00;5.50;;;;;14.85;79.03;99113.41;5094758;28;8837;-64
2022/06/09 00:22:44;;;;;;;;;4.00;4.00;;;;;14.85;79.13;99117.91;5094678;28;8976;-64
2022/06/09 00:25:12;;;;;;;;;4.50;3.75;;;;;14.84;79.12;99118.91;5096556;28;8861;-64
2022/06/09 00:27:40;;;;;;;;;7.00;6.00;;;;;14.82;78.98;99113.75;5097698;28;9604;-64
2022/06/09 00:30:08;;;;;;;;;8.50;8.00;;;;;14.80;79.09;99120.28;5098383;28;8850;-64
2022/06/09 00:32:36;;;;;;;;;2.00;1.00;;;;;14.77;78.93;99112.56;5098009;28;8845;-64
2022/06/09 00:35:03;;;;;;;;;6.50;6.25;;;;;14.73;79.75;99108.56;5097985;28;8846;-65
2022/06/09 00:37:31;;;;;;;;;4.00;4.00;;;;;14.71;79.30;99113.25;5098419;28;9483;-64
2022/06/09 00:39:59;;;;;;;;;6.00;3.00;;;;;14.68;79.38;99122.47;5098590;28;8984;-64
2022/06/09 00:42:27;;;;;;;;;3.00;3.00;;;;;14.69;79.38;99134.00;5098138;28;8977;-64
2022/06/09 00:44:55;;;;;;;;;3.75;3.75;;;;;14.68;79.43;99129.66;5098107;28;8825;-64
2022/06/09 00:47:23;;;;;;;;;5.00;4.50;;;;;14.67;79.52;99130.66;5097836;28;8834;-64
2022/06/09 00:49:51;;;;;;;;;3.00;2.50;;;;;14.67;79.53;99130.66;5097986;28;8858;-64
2022/06/09 00:52:19;;;;;;;;;4.00;3.25;;;;;14.67;79.61;99133.34;5097714;28;8989;-64
2022/06/09 00:54:47;;;;;;;;;3.00;2.00;;;;;14.65;79.47;99144.22;5097726;28;8910;-64
2022/06/09 00:57:15;;;;;;;;;5.00;5.00;;;;;14.67;79.81;99146.72;5098000;28;8830;-64
2022/06/09 00:59:43;;;;;;;;;3.25;3.25;;;;;14.67;79.55;99146.72;5097614;28;8834;-64
2022/06/09 01:02:10;;;;;;;;;3.50;3.00;;;;;14.67;79.34;99146.72;5097396;28;9022;-64
2022/06/09 01:04:39;;;;;;;;;5.50;5.50;;;;;14.71;79.88;99156.13;5097328;28;8822;-67
2022/06/09 01:07:07;;;;;;;;;4.00;4.00;;;;;14.72;79.34;99155.13;5097873;28;8838;-64
2022/06/09 01:09:35;;;;;;;;;3.00;3.00;;;;;14.77;79.22;99158.13;5097425;28;8830;-64
2022/06/09 01:12:03;;;;;;;;;3.50;3.50;;;;;14.80;79.16;99157.81;5097618;28;8874;-64
2022/06/09 01:14:31;;;;;;;;;4.00;4.00;;;;;14.81;79.39;99165.66;5097610;28;8834;-64
2022/06/09 01:16:58;;;;;;;;;3.50;3.00;;;;;14.82;79.52;99163.81;5096398;28;8826;-64
2022/06/09 01:19:28;;;;;;;;;5.00;4.00;;;;;14.81;79.21;99165.66;5096358;28;8842;-64
2022/06/09 01:21:55;;;;;;;;;3.50;3.50;;;;;14.81;79.41;99165.66;5095677;28;8966;-64
2022/06/09 01:24:23;;;;;;;;;4.00;4.00;;;;;14.84;78.95;99162.66;5096515;28;8830;-64
2022/06/09 01:26:51;;;;;;;;;3.00;3.00;;;;;14.86;78.73;99168.69;5095467;28;8948;-64
2022/06/09 01:29:19;;;;;;;;;4.00;3.00;;;;;14.90;79.05;99169.19;5096114;28;8822;-64
2022/06/09 01:31:47;;;;;;;;;5.25;3.00;;;;;14.93;78.69;99163.47;5097016;28;8872;-64
2022/06/09 01:34:15;;;;;;;;;3.75;3.75;;;;;14.94;78.56;99170.53;5097240;28;8857;-64
2022/06/09 01:36:42;;;;;;;;;3.00;3.00;;;;;14.96;78.72;99169.34;5114799;28;8831;-65
2022/06/09 01:39:10;;;;;;;;;3.50;3.50;;;;;14.97;78.50;99163.00;5107289;28;8838;-65
2022/06/09 01:41:39;;;;;;;;;3.00;3.00;;;;;14.99;78.66;99178.88;5096053;28;9530;-64
2022/06/09 01:44:07;;;;;;;;;6.00;4.00;;;;;14.99;78.23;99170.84;5096616;28;8976;-64
2022/06/09 01:46:35;;;;;;;;;3.50;3.00;;;;;15.01;78.68;99182.25;5114773;28;8808;-64
2022/06/09 01:49:03;;;;;;;;;1.00;1.00;;;;;15.00;78.73;99176.06;5117969;28;8854;-64
2022/06/09 01:51:31;;;;;;;;;4.00;3.00;;;;;14.97;78.95;99176.41;5117939;28;8861;-64
2022/06/09 01:53:58;;;;;;;;;4.50;3.25;;;;;14.93;78.81;99179.56;5117602;28;9391;-64
2022/06/09 01:56:26;;;;;;;;;3.25;3.25;;;;;14.88;79.37;99181.94;5101634;28;9496;-65
2022/06/09 01:58:54;;;;;;;;;2.00;2.00;;;;;14.83;78.97;99179.75;5097544;28;8810;-64
2022/06/09 02:01:22;;;;;;;;;3.00;3.00;;;;;14.82;79.15;99183.44;5097388;28;8868;-65
2022/06/09 02:03:50;;;;;;;;;0.00;0.00;;;;;14.84;79.73;99191.28;5097430;28;8959;-65
2022/06/09 02:06:17;;;;;;;;;3.00;2.00;;;;;14.84;78.68;99194.81;5110937;28;8939;-64
2022/06/09 02:08:46;;;;;;;;;4.00;3.75;;;;;14.86;78.74;99195.50;5117540;28;8816;-65
2022/06/09 02:11:13;;;;;;;;;3.00;3.00;;;;;14.88;78.89;99193.47;5099779;28;8955;-64
2022/06/09 02:13:41;;;;;;;;;3.00;1.00;;;;;14.90;79.22;99196.00;5117577;28;8808;-65
2022/06/09 02:16:09;;;;;;;;;4.50;3.00;;;;;14.91;78.66;99190.47;5104009;28;8829;-65
2022/06/09 02:18:37;;;;;;;;;3.50;3.50;;;;;14.93;78.42;99190.28;5096928;28;8846;-65
2022/06/09 02:21:05;;;;;;;;;5.50;3.75;;;;;14.94;78.87;99189.31;5097021;28;8845;-64
2022/06/09 02:23:33;;;;;;;;;2.50;2.50;;;;;14.93;78.33;99185.78;5097102;28;8834;-65
2022/06/09 02:26:01;;;;;;;;;1.00;1.00;;;;;14.92;78.96;99184.09;5107920;28;9528;-64
2022/06/09 02:28:29;;;;;;;;;3.25;3.00;;;;;14.92;78.86;99189.47;5117099;28;8846;-65
2022/06/09 02:30:56;;;;;;;;;2.00;2.00;;;;;14.92;79.37;99193.97;5117108;28;8840;-65
2022/06/09 02:33:24;;;;;;;;;3.25;3.00;;;;;14.92;78.79;99193.97;5117418;28;8836;-64
2022/06/09 02:35:53;;;;;;;;;4.00;4.00;;;;;14.94;78.50;99197.34;5106366;28;8880;-64
2022/06/09 02:38:21;;;;;;;;;8.50;7.00;;;;;14.95;78.27;99196.34;5096404;28;8836;-65
2022/06/09 02:40:49;;;;;;;;;3.00;3.00;;;;;14.95;78.76;99201.69;5096750;28;8980;-65
2022/06/09 02:43:17;;;;;;;;;5.50;3.00;;;;;14.98;78.62;99201.34;5096573;28;8830;-65
2022/06/09 02:45:45;;;;;;;;;5.50;5.00;;;;;14.97;78.19;99203.22;5105825;28;8800;-64
2022/06/09 02:48:13;;;;;;;;;4.50;3.50;;;;;14.99;78.35;99216.44;5116858;28;8824;-65
2022/06/09 02:50:41;;;;;;;;;3.50;3.50;;;;;14.99;78.31;99205.69;5116809;28;8848;-65
2022/06/09 02:53:09;;;;;;;;;6.00;4.00;;;;;14.99;77.96;99198.50;5116614;28;8851;-65
2022/06/09 02:55:36;;;;;;;;;5.00;4.00;;;;;15.00;78.17;99207.38;5108269;28;8810;-65
2022/06/09 02:58:05;;;;;;;;;5.50;5.00;;;;;14.99;78.66;99209.25;5095798;28;8849;-64
2022/06/09 03:00:32;;;;;;;;;6.00;6.00;;;;;15.00;78.55;99202.00;5096127;28;8853;-65
2022/06/09 03:03:00;;;;;;;;;3.50;3.50;;;;;14.99;78.71;99219.13;5096414;28;8856;-66
2022/06/09 03:05:28;;;;;;;;;6.00;5.50;;;;;14.99;78.20;99203.88;5102712;28;8935;-64
2022/06/09 03:07:56;;;;;;;;;4.00;4.00;;;;;15.00;78.63;99218.09;5115844;28;9461;-65
2022/06/09 03:10:24;;;;;;;;;5.00;4.00;;;;;15.01;78.20;99217.13;5115836;28;8839;-65
2022/06/09 03:12:51;;;;;;;;;8.00;6.50;;;;;15.01;78.32;99211.75;5116220;28;9652;-65
2022/06/09 03:15:19;;;;;;;;;7.00;6.75;;;;;15.00;78.45;99218.94;5111375;28;8848;-64
2022/06/09 03:17:48;;;;;;;;;9.00;8.00;;;;;15.01;78.33;99211.75;5096068;28;8825;-64
2022/06/09 03:20:16;;;;;;;;;5.00;4.00;;;;;15.00;78.86;99221.63;5095941;28;8826;-64
2022/06/09 03:22:44;;;;;;;;;8.00;6.75;;;;;15.01;78.22;99217.13;5095744;28;8818;-65
2022/06/09 03:25:12;;;;;;;;;6.00;6.00;;;;;15.01;78.20;99225.16;5099445;28;8840;-65
2022/06/09 03:27:42;;;;;;;;;6.75;6.75;;;;;15.01;78.05;99222.50;5116289;28;8956;-65
2022/06/09 03:30:09;;;;;;;;;6.75;6.00;;;;;15.01;77.78;99230.53;5116365;28;8982;-65
2022/06/09 03:32:37;;;;;;;;;9.75;8.00;;;;;15.01;78.03;99227.84;5115224;28;8858;-64
2022/06/09 03:35:05;;;;;;;;;6.50;6.00;;;;;15.01;78.34;99241.25;5113785;28;8862;-64
2022/06/09 03:37:33;;;;;;;;;7.00;7.00;;;;;15.01;78.46;99230.53;5095406;28;8842;-65
2022/06/09 03:40:01;;;;;;;;;7.00;7.00;;;;;15.01;78.10;99234.03;5095933;28;8852;-64
2022/06/09 03:42:29;;;;;;;;;7.00;7.00;;;;;15.03;77.90;99244.59;5095908;28;8895;-64
2022/06/09 03:44:56;;;;;;;;;8.00;8.00;;;;;15.03;77.92;99231.19;5096615;28;8841;-64
2022/06/09 03:47:24;;;;;;;;;6.50;6.50;;;;;15.03;78.02;99249.97;5115732;28;8812;-65
2022/06/09 03:49:52;;;;;;;;;6.50;6.50;;;;;15.04;78.30;99257.00;5115660;28;8978;-65
2022/06/09 03:52:20;;;;;;;;;7.00;7.00;;;;;15.05;77.98;99258.66;5116155;28;8832;-64
2022/06/09 03:54:48;;;;;;;;;9.00;9.00;;;;;15.03;77.90;99266.06;5115731;28;8847;-64
2022/06/09 03:57:16;;;;;;;;;8.00;7.00;;;;;15.04;78.03;99263.22;5115585;28;8972;-64
2022/06/09 03:59:44;;;;;;;;;8.00;8.00;;;;;15.06;78.16;99260.34;5117703;28;8858;-65
2022/06/09 04:02:11;;;;;;;;;7.00;6.75;;;;;15.04;78.12;99271.25;5119463;28;8958;-64
2022/06/09 04:04:39;;;;;;;;;12.00;10.50;;;;;15.06;77.84;99273.75;5119889;28;8828;-64
2022/06/09 04:07:08;;;;;;;;;7.50;7.00;;;;;15.04;78.07;99281.13;5100419;28;8969;-65
2022/06/09 04:09:35;;;;;;;;;9.50;9.00;;;;;15.02;78.25;99283.97;5099282;28;8838;-64
2022/06/09 04:12:03;;;;;;;;;9.50;8.00;;;;;15.01;78.00;99286.84;5098925;28;8852;-65
2022/06/09 04:14:31;;;;;;;;;9.50;9.25;;;;;15.02;78.45;99285.84;5099063;28;8841;-64
2022/06/09 04:17:00;;;;;;;;;9.75;8.50;;;;;15.02;77.89;99288.50;5100295;28;8846;-64
2022/06/09 04:19:28;;;;;;;;;12.00;11.50;;;;;15.02;78.37;99299.25;5099002;28;9472;-64
2022/06/09 04:21:56;;;;;;;;;10.25;6.25;;;;;15.01;78.13;99298.38;5099033;28;8829;-64
2022/06/09 04:24:24;;;;;;;;;3.50;3.50;;;;;15.02;78.12;99301.94;5099267;28;8834;-64
2022/06/09 04:26:52;;;;;;;;;14.75;12.50;;;;;15.02;77.87;99304.59;5114472;28;8815;-64
2022/06/09 04:29:19;;;;;;;;;15.00;11.50;;;;;15.03;78.26;99303.59;5119611;28;8840;-64
2022/06/09 04:31:47;;;;;;;;;8.75;8.75;;;;;15.03;78.27;99301.75;5119296;28;8856;-64
2022/06/09 04:34:15;;;;;;;;;6.25;5.00;;;;;15.06;77.79;99304.09;5119324;28;8820;-64
2022/06/09 04:36:43;;;;;;;;;15.00;13.00;;;;;15.08;77.98;99303.91;5103757;28;8856;-67
2022/06/09 04:39:11;;;;;;;;;11.67;10.33;;;;;15.10;77.54;99309.97;5098979;28;8864;-64
2022/06/09 04:41:39;;;;;;;;;7.50;6.75;;;;;15.10;78.09;99310.81;5097752;28;8822;-64
2022/06/09 04:44:07;;;;;;;;;9.50;9.50;;;;;15.14;77.56;99305.94;5098724;28;8817;-64
2022/06/09 04:46:34;;;;;;;;;15.00;12.25;;;;;15.16;77.59;99309.31;5111547;28;8812;-64
2022/06/09 04:49:03;;;;;;;;;13.00;12.00;;;;;15.18;77.39;99307.31;5118682;28;8824;-64
2022/06/09 04:51:31;;;;;;;;;12.75;12.75;;;;;15.20;77.68;99319.53;5118830;28;8888;-64
2022/06/09 04:53:58;;;;;;;;;15.25;11.00;;;;;15.23;77.31;99318.34;5119126;28;8850;-65
2022/06/09 04:56:26;;;;;;;;;13.00;12.00;;;;;15.23;77.39;99312.97;5106479;28;8868;-65
2022/06/09 04:58:54;;;;;;;;;15.00;13.50;;;;;15.28;77.45;99324.06;5097500;28;8946;-64
2022/06/09 05:01:22;;;;;;;;;7.50;7.50;;;;;15.33;76.76;99319.09;5097874;28;8850;-65
2022/06/09 05:03:50;;;;;;;;;6.75;6.00;;;;;15.38;77.02;99325.63;5098207;28;9503;-64
2022/06/09 05:06:18;;;;;;;;;12.50;12.00;;;;;15.43;76.67;99325.09;5096088;28;8910;-64
2022/06/09 05:08:46;;;;;;;;;16.00;13.00;;;;;15.46;76.99;99335.53;5096194;28;8838;-64
2022/06/09 05:11:14;;;;;;;;;9.00;9.00;;;;;15.44;77.39;99342.88;5093538;28;8838;-64
2022/06/09 05:13:41;;;;;;;;;12.50;12.00;;;;;15.42;76.98;99342.22;5093674;28;8842;-64
2022/06/09 05:16:09;;;;;;;;;13.25;12.50;;;;;15.41;77.19;99348.59;5095275;28;8829;-64
2022/06/09 05:18:37;;;;;;;;;14.50;12.75;;;;;15.40;77.00;99360.34;5095478;28;8841;-64
2022/06/09 05:21:05;;;;;;;;;14.75;12.50;;;;;15.36;77.10;99349.09;5095362;28;8814;-64
2022/06/09 05:23:33;;;;;;;;;12.25;11.50;;;;;15.33;77.07;99353.97;5095220;28;8971;-64
2022/06/09 05:26:01;;;;;;;;;15.75;12.25;;;;;15.29;77.16;99369.50;5096537;28;9643;-65
2022/06/09 05:28:29;;;;;;;;;11.00;9.50;;;;;15.25;77.28;99368.16;5095900;28;8834;-64
2022/06/09 05:30:57;;;;;;;;;4.50;4.00;;;;;15.23;77.74;99369.31;5094508;28;8873;-64
2022/06/09 05:33:25;;;;;;;;;12.75;11.00;;;;;15.21;77.16;99371.34;5094495;28;8926;-64
2022/06/09 05:35:52;;;;;;;;;7.00;6.75;;;;;15.20;77.61;99372.34;5095338;28;8845;-64
2022/06/09 05:46:39;;;;;;;;;15.75;12.75;;;;;15.23;77.36;99385.41;5092875;28;8978;-64
2022/06/09 05:49:13;;;;;;;;;14.00;14.00;;;;;15.25;77.07;99383.44;5092521;28;8931;-64
2022/06/09 05:51:41;;;;;;;;;21.00;17.50;;;;;15.24;77.70;99392.47;5093401;28;8836;-64
2022/06/09 05:54:09;;;;;;;;;15.25;11.50;;;;;15.24;77.32;99384.44;5093271;28;8830;-64
2022/06/09 05:56:37;;;;;;;;;12.75;12.50;;;;;15.25;77.57;99391.47;5093981;28;9091;-64
2022/06/09 05:59:05;;;;;;;;;12.00;11.50;;;;;15.25;77.12;99402.22;5093780;28;9496;-64
2022/06/09 06:01:32;;;;;;;;;14.25;14.00;;;;;15.25;77.21;99388.78;5093494;28;8862;-64
2022/06/09 06:04:00;;;;;;;;;17.50;12.50;;;;;15.26;77.41;99398.50;5093455;28;8965;-64
2022/06/09 06:06:33;;;;;;;;;15.00;13.75;;;;;15.28;77.09;99396.50;5093906;28;8830;-65
2022/06/09 06:09:08;;;;;;;;;18.00;15.00;;;;;15.33;77.38;99404.94;5094719;28;8849;-65
2022/06/09 06:11:36;;;;;;;;;18.00;16.50;;;;;15.36;77.33;99413.50;5095157;28;8830;-64
2022/06/09 06:14:04;;;;;;;;;18.25;16.00;;;;;15.40;76.78;99412.16;5094179;28;8856;-64
2022/06/09 06:16:32;;;;;;;;;19.25;14.50;;;;;15.44;77.13;99409.97;5094851;28;8855;-65
2022/06/09 06:19:03;;;;;;;;;23.50;16.50;;;;;15.51;76.76;99419.91;5094951;28;8829;-64
2022/06/09 06:21:30;;;;;;;;;14.50;13.25;;;;;15.57;76.45;99413.00;5094800;28;8830;-65
2022/06/09 06:23:58;;;;;;;;;11.00;11.00;;;;;15.64;76.17;99424.75;5095270;28;8841;-64
2022/06/09 06:26:26;;;;;;;;;16.00;15.00;;;;;15.72;76.40;99420.25;5093725;28;8914;-64
2022/06/09 06:28:54;;;;;;;;;18.50;15.25;;;;;15.81;76.11;99427.31;5093880;28;8846;-64
2022/06/09 06:31:21;;;;;;;;;14.50;13.00;;;;;15.87;76.15;99434.69;5093193;28;8862;-64
2022/06/09 06:33:49;;;;;;;;;13.00;12.00;;;;;15.91;76.05;99438.69;5093467;28;8849;-64
2022/06/09 06:36:17;;;;;;;;;18.25;12.75;;;;;15.96;75.83;99447.09;5094775;28;8868;-64
2022/06/09 06:38:45;;;;;;;;;17.75;17.25;;;;;15.98;75.49;99446.91;5095279;28;8852;-64
2022/06/09 06:41:13;;;;;;;;;13.00;12.00;;;;;16.00;75.51;99447.59;5093917;28;8833;-65
2022/06/09 06:43:43;;;;;;;;;12.00;12.00;;;;;16.03;75.50;99455.31;5093313;28;8895;-64
2022/06/09 06:46:11;;;;;;;;;22.50;16.75;;;;;16.06;75.73;99463.88;5091199;28;8838;-64
2022/06/09 06:48:39;;;;;;;;;16.50;15.50;;;;;16.10;75.41;99467.06;5092760;28;8842;-64
2022/06/09 06:51:07;;;;;;;;;15.50;15.25;;;;;16.11;74.99;99463.38;5092135;28;8876;-65
2022/06/09 06:53:35;;;;;;;;;15.00;14.50;;;;;16.13;74.81;99461.34;5092407;28;8960;-65
2022/06/09 06:56:02;;;;;;;;;14.00;12.00;;;;;16.15;75.15;99478.97;5091595;28;8848;-64
2022/06/09 06:58:30;;;;;;;;;16.50;15.00;;;;;16.19;75.37;99477.66;5092001;28;9842;-64
2022/06/09 07:00:58;;;;;;;;;15.00;14.00;;;;;16.22;74.95;99479.16;5094667;28;8838;-65
2022/06/09 07:03:26;;;;;;;;;15.75;15.75;;;;;16.22;75.24;99481.84;5094784;28;8822;-64
2022/06/09 07:06:01;;;;;;;;;9.75;8.75;;;;;16.23;74.86;99482.50;5094375;28;8822;-64
2022/06/09 07:08:29;;;;;;;;;15.25;13.00;;;;;16.27;75.37;99494.59;5094215;28;9500;-64
2022/06/09 07:10:57;;;;;;;;;15.50;14.00;;;;;16.32;75.09;99489.56;5093415;28;8956;-64
2022/06/09 07:13:25;;;;;;;;;19.50;18.75;;;;;16.38;74.74;99494.28;5093744;28;8907;-65
2022/06/09 07:15:53;;;;;;;;;18.25;15.75;;;;;16.40;74.66;99503.03;5093501;28;8855;-64
2022/06/09 07:18:27;;;;;;;;;11.00;8.00;;;;;16.42;74.48;99502.84;5094194;28;8846;-64
2022/06/09 07:20:55;;;;;;;;;16.50;15.75;;;;;16.44;74.46;99512.44;5093281;28;8849;-66
2022/06/09 07:23:23;;;;;;;;;17.50;16.75;;;;;16.51;74.28;99509.91;5092068;28;8863;-65
2022/06/09 07:25:50;;;;;;;;;13.25;12.75;;;;;16.66;74.12;99509.03;5090990;28;9231;-64
2022/06/09 07:28:18;;;;;;;;;20.00;17.00;;;;;16.73;73.98;99514.56;5089610;28;8836;-64
2022/06/09 07:30:46;;;;;;;;;10.50;9.25;;;;;16.80;73.68;99513.69;5087901;28;8854;-64
2022/06/09 07:33:14;;;;;;;;;9.50;6.75;;;;;17.00;73.19;99517.69;5090763;28;9199;-64
2022/06/09 07:35:42;;;;;;;;;24.00;20.50;;;;;17.18;72.67;99526.38;5095489;28;8857;-64
2022/06/09 07:38:10;;;;;;;;;17.00;17.00;;;;;17.29;72.27;99525.13;5096034;28;8856;-64
2022/06/09 07:40:38;;;;;;;;;18.00;16.60;;;;;17.31;72.65;99537.41;5096585;28;9541;-64
2022/06/09 07:43:05;;;;;;;;;18.75;17.00;;;;;17.35;72.19;99533.38;5098552;28;8842;-65
2022/06/09 07:45:34;;;;;;;;;20.00;19.50;;;;;17.49;72.57;99529.97;5099528;28;8922;-64
2022/06/09 07:48:02;;;;;;;;;17.75;15.25;;;;;17.57;71.73;99546.09;5098634;28;8881;-65
2022/06/09 07:50:30;;;;;;;;;18.25;15.00;;;;;17.64;71.97;99544.38;5097332;28;8825;-64
2022/06/09 07:52:58;;;;;;;;;17.00;13.75;;;;;17.74;72.12;99549.53;5097999;28;8844;-65
2022/06/09 07:55:26;;;;;;;;;18.80;15.00;;;;;17.82;71.38;99558.41;5097930;28;8952;-65
2022/06/09 07:57:54;;;;;;;;;19.00;18.00;;;;;17.93;71.21;99549.91;5098776;28;8914;-65
2022/06/09 08:00:21;;;;;;;;;19.00;17.00;;;;;18.00;71.29;99556.25;5098401;28;8850;-65
2022/06/09 08:02:49;;;;;;;;;19.00;15.75;;;;;18.08;70.80;99556.22;5099152;28;8884;-65
2022/06/09 08:05:17;;;;;;;;;28.25;19.50;;;;;18.12;70.74;99559.38;5097055;28;8837;-65
2022/06/09 08:07:45;;;;;;;;;11.60;9.80;;;;;18.05;71.25;99559.28;5097004;28;8848;-64
2022/06/09 08:10:13;;;;;;;;;23.25;19.75;;;;;17.95;71.16;99564.06;5098187;28;9030;-65
2022/06/09 08:12:41;;;;;;;;;18.00;16.00;;;;;17.75;71.83;99567.41;5098694;28;8850;-65
2022/06/09 08:15:09;;;;;;;;;19.80;17.20;;;;;17.59;72.10;99576.38;5097474;28;9083;-65
2022/06/09 08:17:38;;;;;;;;;21.00;19.00;;;;;17.49;72.62;99575.75;5098318;28;8838;-64
2022/06/09 08:20:06;;;;;;;;;14.20;13.00;;;;;17.38;73.14;99581.50;5098179;28;8850;-65
2022/06/09 08:22:40;;;;;;;;;17.60;16.00;;;;;17.30;72.97;99581.50;5098318;28;8852;-65
2022/06/09 08:25:08;;;;;;;;;23.00;18.00;;;;;17.20;73.55;99588.09;5097597;28;9625;-65
2022/06/09 08:27:49;;;;;;;;;27.25;20.00;;;;;17.05;73.75;99598.75;5098214;28;8838;-65
2022/06/09 08:30:16;;;;;;;;;27.50;22.50;;;;;16.96;74.00;99601.59;5096576;28;8857;-65
2022/06/09 08:32:44;;;;;;;;;16.50;15.00;;;;;16.97;73.52;99600.59;5096832;28;8863;-65
2022/06/09 08:35:12;;;;;;;;;22.75;18.75;;;;;17.00;74.14;99606.47;5097866;28;8988;-65
2022/06/09 08:37:40;;;;;;;;;19.25;16.75;;;;;17.00;73.93;99608.34;5098492;28;9008;-64
2022/06/09 08:40:08;;;;;;;;;17.75;16.75;;;;;16.93;74.09;99624.31;5099109;28;8842;-64
2022/06/09 08:42:35;;;;;;;;;23.50;21.50;;;;;16.90;74.05;99611.19;5097402;28;8841;-65
2022/06/09 08:45:05;;;;;;;;;19.25;18.00;;;;;16.98;73.40;99623.78;5096676;28;9531;-65
2022/06/09 08:47:33;;;;;;;;;23.00;19.50;;;;;17.11;73.16;99621.44;5096927;28;8912;-64
2022/06/09 08:50:01;;;;;;;;;23.50;22.00;;;;;17.33;73.27;99620.69;5095931;28;8849;-65
2022/06/09 08:52:29;;;;;;;;;29.00;26.00;;;;;17.58;72.59;99620.47;5096021;28;8849;-64
2022/06/09 08:54:56;;;;;;;;;24.00;23.00;;;;;17.91;71.48;99619.31;5094553;28;8846;-64
2022/06/09 08:57:25;;;;;;;;;22.25;20.50;;;;;18.26;71.17;99616.09;5094703;28;8934;-65
2022/06/09 08:59:52;;;;;;;;;28.50;23.50;;;;;18.60;69.76;99613.81;5094267;28;8865;-65
2022/06/09 09:02:20;;;;;;;;;20.25;17.00;;;;;18.71;69.67;99621.50;5092804;28;8854;-65
2022/06/09 09:04:48;;;;;;;;;21.20;20.20;;;;;18.73;69.61;99624.84;5094481;28;8927;-64
2022/06/09 09:07:16;;;;;;;;;30.50;25.25;;;;;18.70;69.84;99617.13;5094752;28;8834;-64
2022/06/09 09:09:45;;;;;;;;;34.00;25.50;;;;;18.65;69.96;99618.69;5094656;28;8842;-64
2022/06/09 09:12:12;;;;;;;;;24.40;22.80;;;;;18.61;70.25;99623.59;5096224;28;8849;-64
2022/06/09 09:14:40;;;;;;;;;27.60;21.80;;;;;18.53;70.56;99623.66;5095425;28;8850;-65
2022/06/09 09:17:08;;;;;;;;;15.50;13.50;;;;;18.52;70.22;99626.56;5094863;28;9527;-65
2022/06/09 09:19:36;;;;;;;;;22.40;19.80;;;;;18.50;70.60;99624.03;5093784;28;8964;-64
2022/06/09 09:22:04;;;;;;;;;21.60;18.80;;;;;18.57;70.78;99619.59;5094848;28;9155;-65
2022/06/09 09:24:32;;;;;;;;;18.60;16.20;;;;;18.73;70.43;99626.72;5095060;28;8899;-64
2022/06/09 09:27:00;;;;;;;;;18.40;15.20;;;;;18.83;69.62;99622.72;5094182;28;8865;-64
2022/06/09 09:29:27;;;;;;;;;20.40;18.80;;;;;18.99;69.43;99633.41;5094068;28;8956;-64
2022/06/09 09:31:55;;;;;;;;;20.00;18.20;;;;;19.09;69.51;99638.53;5092987;28;8867;-65
2022/06/09 09:34:23;;;;;;;;;31.20;25.60;;;;;19.11;69.15;99639.19;5095234;28;8846;-65
2022/06/09 09:36:51;;;;;;;;;27.20;23.40;;;;;19.12;69.33;99636.28;5094134;28;8852;-65
2022/06/09 09:39:22;;;;;;;;;21.80;19.60;;;;;19.25;68.76;99641.94;5092969;28;8842;-65
2022/06/09 09:41:50;;;;;;;;;27.80;22.80;;;;;19.30;68.65;99638.69;5093198;28;8854;-64
2022/06/09 09:44:18;;;;;;;;;25.60;24.60;;;;;19.35;68.75;99647.91;5093491;28;9305;-65
2022/06/09 09:46:45;;;;;;;;;25.40;23.40;;;;;19.42;68.84;99643.44;5093441;28;8841;-64
2022/06/09 09:49:16;;;;;;;;;25.80;25.80;;;;;19.73;68.47;99656.78;5093410;28;8899;-64
2022/06/09 09:51:44;;;;;;;;;29.60;26.60;;;;;20.16;66.87;99643.22;5093310;28;8848;-65
2022/06/09 09:54:12;;;;;;;;;23.80;20.80;;;;;20.51;66.29;99639.69;5094335;28;8834;-65
2022/06/09 09:56:39;;;;;;;;;23.20;17.00;;;;;20.82;65.87;99638.31;5093404;28;8821;-65
2022/06/09 09:59:07;;;;;;;;;22.20;20.40;;;;;21.18;64.96;99638.25;5093080;28;8888;-65
2022/06/09 10:10:44;;;;;;;;;20.00;17.20;;;;;21.60;64.29;99646.22;5090146;28;9008;-65
2022/06/09 10:13:13;;;;;;;;;19.80;18.60;;;;;21.42;64.37;99654.06;5090208;28;8872;-65
2022/06/09 10:15:58;;;;;;;;;18.20;15.60;;;;;21.64;64.60;99648.34;5090860;28;8830;-65
2022/06/09 10:18:43;;;;;;;;;21.20;16.20;;;;;22.43;62.72;99638.75;5090586;28;8846;-65
2022/06/09 10:21:29;;;;;;;;;14.80;13.40;;;;;22.94;61.40;99653.44;5091882;28;8818;-65
2022/06/09 10:23:57;;;;;;;;;17.80;15.80;;;;;22.90;61.59;99647.59;5094176;28;8992;-65
2022/06/09 10:26:26;;;;;;;;;12.60;10.00;;;;;23.13;60.99;99655.34;5094635;28;8870;-65
2022/06/09 10:28:54;;;;;;;;;15.80;15.20;;;;;23.43;60.49;99653.91;5092997;28;8856;-65
2022/06/09 10:31:22;;;;;;;;;23.00;18.20;;;;;23.91;59.45;99653.38;5092484;28;8845;-65
2022/06/09 10:33:49;;;;;;;;;15.40;14.40;;;;;24.18;59.11;99648.69;5092624;28;8847;-65
2022/06/09 10:36:17;;;;;;;;;17.20;16.40;;;;;24.11;59.07;99658.78;5092882;28;9199;-65
2022/06/09 10:38:47;;;;;;;;;18.60;16.60;;;;;23.59;60.13;99661.63;5093863;28;8860;-65
2022/06/09 10:41:15;;;;;;;;;16.20;16.20;;;;;23.17;61.01;99662.06;5094024;28;8852;-65
2022/06/09 10:43:42;;;;;;;;;18.00;13.20;;;;;23.01;61.32;99654.28;5092992;28;8838;-65
2022/06/09 10:46:10;;;;;;;;;17.20;16.40;;;;;22.86;62.13;99661.81;5093106;28;9496;-66
2022/06/09 10:56:54;;;;;;;;;13.00;10.00;;;;;23.20;61.24;99667.91;5092012;28;8834;-66
2022/06/09 10:59:22;;;;;;;;;16.40;13.80;;;;;22.71;61.93;99680.16;5093553;28;8903;-65
2022/06/09 11:01:49;;;;;;;;;16.40;12.80;;;;;22.27;62.75;99680.63;5093046;28;8857;-66
2022/06/09 11:04:17;;;;;;;;;13.60;12.60;;;;;22.74;62.08;99668.88;5092906;28;8980;-65
2022/06/09 11:06:46;;;;;;;;;14.00;14.00;;;;;23.52;59.83;99671.66;5092780;28;8850;-66
2022/06/09 11:09:14;;;;;;;;;16.00;14.00;;;;;24.23;58.07;99667.94;5090984;28;8956;-66
2022/06/09 11:11:42;;;;;;;;;13.40;12.20;;;;;24.57;57.58;99664.88;5092218;28;8842;-67
2022/06/09 11:14:13;;;;;;;;;17.80;14.60;;;;;24.40;58.43;99675.41;5090190;28;9613;-66
2022/06/09 11:16:40;;;;;;;;;14.20;10.40;;;;;24.29;58.59;99686.97;5089812;28;8837;-66
2022/06/09 11:19:08;;;;;;;;;16.40;13.60;;;;;23.78;59.34;99690.66;5088175;28;8834;-66
2022/06/09 11:21:36;;;;;;;;;14.00;12.20;;;;;23.02;61.13;99699.44;5087843;28;8834;-66
2022/06/09 11:24:04;;;;;;;;;15.60;13.60;;;;;22.48;61.91;99707.66;5087022;28;9215;-66
2022/06/09 11:26:32;;;;;;;;;15.60;13.00;;;;;22.22;62.49;99704.81;5087738;28;8850;-66
2022/06/09 11:29:00;;;;;;;;;13.40;13.00;;;;;22.14;62.97;99696.84;5089787;28;8841;-66
2022/06/09 11:31:28;;;;;;;;;11.40;10.20;;;;;22.73;61.66;99694.38;5089633;28;8986;-66
2022/06/09 11:33:55;;;;;;;;;18.80;16.00;;;;;23.55;59.88;99699.28;5088168;28;8969;-65
2022/06/09 11:36:24;;;;;;;;;15.40;13.00;;;;;23.38;59.65;99705.34;5087477;28;8977;-66
2022/06/09 11:38:51;;;;;;;;;14.40;13.40;;;;;22.78;61.20;99714.44;5088127;28;8960;-66
2022/06/09 11:41:19;;;;;;;;;15.60;15.20;;;;;22.19;62.56;99728.78;5085800;28;8830;-66
2022/06/09 11:44:07;;;;;;;;;17.80;14.80;;;;;21.49;63.55;99742.47;5086344;28;8869;-66
2022/06/09 11:46:35;;;;;;;;;15.40;15.00;;;;;20.96;65.23;99745.75;5088788;28;8842;-65
2022/06/09 11:49:03;;;;;;;;;13.60;12.00;;;;;20.42;66.41;99757.19;5090316;28;9487;-65
2022/06/09 11:51:30;;;;;;;;;10.20;9.40;;;;;19.73;67.60;99759.47;5090545;28;9491;-64
2022/06/09 11:53:58;;;;;;;;;6.80;6.40;;;;;18.83;69.42;99771.16;5089422;28;8825;-64
2022/06/09 11:56:34;;;;;;;;;5.80;5.80;;;;;18.13;71.75;99774.84;5089538;28;8822;-64
2022/06/09 11:59:02;;;;;;;;;5.20;5.20;;;;;17.69;72.66;99779.00;5089956;28;9145;-64
2022/06/09 12:01:30;;;;;;;;;7.00;7.00;;;;;17.35;73.20;99789.13;5089818;28;8846;-64